McDaniels, Kentucky
Current Conditions -  °F | °C
As of 6:58 AM on Saturday 25 Oct 2014 (Local Time) from KFTK Reporting Station
Overcast Overcast  
Wind Chill: 51°   Ceiling: 3700
Heat Index: 51°   Visibility: 10mi
Dew Point: 49°   Wind: 3mph
Humidity: 92%   Direction: 220°SW
Pressure: 30.02"   Gusts: NA
Location:  37.61°N, 86.42°W
Report Text: KFTK 251158Z AUTO 22003KT 10SM BKN037 OVC047 11/09 A3002 RMK AO2 SLP169 T01050093 10105 20076 55003
Loading
Personal Weather Stations






























Interactive Weather Map
Tropical Storm Tracking
New forecast layout! Learn more

10-Day Weather Forecast

Advertisements
Track Severe Weather on mobile